Time;durP1;ratioP1;P1;durP2;ratioP2;P2;SDS_P1;SDS_P2;PMS_P1;PMS_P2;Temp;Humidity;BMP_temperature;BMP_pressure;BME280_temperature;BME280_humidity;BME280_pressure;Samples;Min_cycle;Max_cycle;Signal;HPM_P1;HPM_P2
2022/10/01 00:07:38;;;;;;;0.20;0.10;;;15.50;99.90;;;;;;21256551;28;20219;-69
2022/10/01 00:17:44;;;;;;;0.20;0.10;;;15.60;99.90;;;;;;21256433;28;20248;-69
2022/10/01 00:27:48;;;;;;;0.20;0.03;;;15.50;99.90;;;;;;21254217;28;20213;-69
2022/10/01 00:37:53;;;;;;;0.20;0.10;;;15.30;99.90;;;;;;21254521;28;20219;-69
2022/10/01 00:47:59;;;;;;;0.20;0.03;;;15.30;99.90;;;;;;21253074;28;20184;-68
2022/10/01 00:58:05;;;;;;;0.20;0.10;;;15.20;99.90;;;;;;21252306;28;21730;-69
2022/10/01 01:08:10;;;;;;;0.20;0.10;;;15.30;99.90;;;;;;21246881;28;20219;-69
2022/10/01 01:18:22;;;;;;;0.20;0.00;;;15.20;99.90;;;;;;21251940;28;20219;-69
2022/10/01 01:28:30;;;;;;;0.20;0.03;;;15.40;99.90;;;;;;21250349;28;20203;-69
2022/10/01 01:38:39;;;;;;;0.20;0.00;;;15.50;99.90;;;;;;21253170;28;20235;-69
2022/10/01 01:48:48;;;;;;;0.20;0.00;;;15.50;99.90;;;;;;21252147;28;20192;-68
2022/10/01 01:58:52;;;;;;;0.20;0.00;;;15.50;99.90;;;;;;21252150;28;20219;-70
2022/10/01 02:09:03;;;;;;;0.20;0.10;;;15.50;99.90;;;;;;21251487;28;20223;-69
2022/10/01 02:19:16;;;;;;;0.20;0.07;;;15.50;99.90;;;;;;21251091;28;20233;-67
2022/10/01 02:29:23;;;;;;;0.20;0.10;;;15.50;99.90;;;;;;21250879;28;20191;-67
2022/10/01 02:39:30;;;;;;;0.20;0.10;;;15.40;99.90;;;;;;21250244;28;20227;-67
2022/10/01 02:49:36;;;;;;;0.20;0.00;;;15.40;99.90;;;;;;21248746;28;20206;-68
2022/10/01 02:59:39;;;;;;;0.20;0.00;;;15.40;99.90;;;;;;21251050;28;20216;-68
2022/10/01 03:09:44;;;;;;;0.20;0.00;;;15.40;99.90;;;;;;21195409;28;20254;-69
2022/10/01 03:19:48;;;;;;;0.20;0.10;;;15.20;99.90;;;;;;21179093;28;20228;-68
2022/10/01 03:29:53;;;;;;;0.20;0.00;;;15.10;99.90;;;;;;21177813;28;20739;-68
2022/10/01 03:39:57;;;;;;;0.20;0.10;;;15.10;99.90;;;;;;21176709;28;20219;-69
2022/10/01 03:50:03;;;;;;;0.20;0.00;;;15.00;99.90;;;;;;21171635;28;20185;-68
2022/10/01 04:00:09;;;;;;;0.20;0.00;;;15.00;99.90;;;;;;21173716;28;20242;-68
2022/10/01 04:10:14;;;;;;;0.20;0.00;;;15.00;99.90;;;;;;21156883;28;20238;-69
2022/10/01 04:20:18;;;;;;;0.20;0.10;;;14.80;99.90;;;;;;21183542;28;20233;-68
2022/10/01 04:30:24;;;;;;;0.20;0.00;;;14.70;99.90;;;;;;21257607;28;20184;-68
2022/10/01 04:40:28;;;;;;;0.20;0.10;;;14.80;99.90;;;;;;21256521;28;20235;-68
2022/10/01 04:50:33;;;;;;;0.20;0.10;;;14.90;99.90;;;;;;21254941;28;20296;-69
2022/10/01 05:00:37;;;;;;;0.20;0.10;;;15.00;99.90;;;;;;21254511;28;20227;-68
2022/10/01 05:10:42;;;;;;;0.20;0.00;;;14.90;99.90;;;;;;21179863;28;20200;-69
2022/10/01 05:20:46;;;;;;;0.20;0.10;;;14.80;99.90;;;;;;21168517;28;20252;-69
2022/10/01 05:30:51;;;;;;;0.20;0.00;;;14.80;99.90;;;;;;21168521;28;20196;-69
2022/10/01 05:40:55;;;;;;;0.20;0.00;;;14.80;99.90;;;;;;21167302;28;20216;-67
2022/10/01 05:51:01;;;;;;;0.20;0.10;;;14.70;99.90;;;;;;21166992;28;20184;-68
2022/10/01 06:01:05;;;;;;;0.20;0.10;;;14.70;99.90;;;;;;21164671;28;20242;-69
2022/10/01 06:11:10;;;;;;;0.20;0.10;;;14.90;99.90;;;;;;21166255;28;20264;-70
2022/10/01 06:21:15;;;;;;;0.20;0.00;;;14.80;99.90;;;;;;21164764;28;20223;-69
2022/10/01 06:31:21;;;;;;;0.20;0.07;;;14.80;99.90;;;;;;21165130;28;20192;-68
2022/10/01 06:41:25;;;;;;;0.20;0.00;;;15.10;99.90;;;;;;21177737;28;20277;-68
2022/10/01 07:01:53;;;;;;;0.20;0.10;;;15.70;99.90;;;;;;21175193;28;20227;-69
2022/10/01 07:12:00;;;;;;;0.20;0.10;;;16.10;99.90;;;;;;21177220;28;20204;-69
2022/10/01 07:22:04;;;;;;;0.20;0.10;;;16.40;99.90;;;;;;21174987;28;20212;-66
2022/10/01 07:32:10;;;;;;;0.20;0.00;;;16.60;99.90;;;;;;21176143;28;20196;-67
2022/10/01 07:42:13;;;;;;;0.20;0.10;;;17.00;99.90;;;;;;21171644;28;20239;-69
2022/10/01 07:52:19;;;;;;;0.20;0.10;;;17.00;99.90;;;;;;21171523;28;20220;-68
2022/10/01 08:02:23;;;;;;;0.20;0.10;;;17.40;99.90;;;;;;21172957;28;20234;-69
2022/10/01 08:12:29;;;;;;;0.20;0.10;;;17.80;99.90;;;;;;21219885;28;20246;-72
2022/10/01 08:22:33;;;;;;;0.20;0.00;;;18.00;99.90;;;;;;21253162;28;20227;-69
2022/10/01 08:32:45;;;;;;;0.20;0.10;;;18.50;99.90;;;;;;21255712;28;20187;-69
2022/10/01 08:42:53;;;;;;;0.20;0.07;;;19.00;99.90;;;;;;21254510;28;20219;-70
2022/10/01 08:53:01;;;;;;;0.20;0.10;;;19.40;99.90;;;;;;21234035;28;20188;-70
2022/10/01 09:03:07;;;;;;;0.20;0.00;;;19.90;99.90;;;;;;21164056;28;20228;-70
2022/10/01 09:13:46;;;;;;;0.20;0.00;;;20.60;99.90;;;;;;21166492;28;20212;-68
2022/10/01 09:24:03;;;;;;;0.20;0.00;;;21.00;99.90;;;;;;21164129;28;20203;-68
2022/10/01 09:34:13;;;;;;;0.20;0.00;;;21.50;99.90;;;;;;21198897;28;20215;-68
2022/10/01 09:44:27;;;;;;;0.20;0.00;;;21.50;99.90;;;;;;21245165;28;20255;-68
2022/10/01 09:54:41;;;;;;;0.20;0.00;;;22.30;99.90;;;;;;21246388;28;20253;-69
2022/10/01 10:04:46;;;;;;;0.20;0.00;;;22.30;99.90;;;;;;21242004;28;20242;-70
2022/10/01 10:14:51;;;;;;;0.20;0.00;;;22.60;99.90;;;;;;21260238;28;20275;-67
2022/10/01 10:24:57;;;;;;;0.20;0.10;;;23.00;99.90;;;;;;21266849;28;20636;-70
2022/10/01 10:35:09;;;;;;;0.20;0.00;;;23.20;99.90;;;;;;21264736;28;20219;-68
2022/10/01 10:45:19;;;;;;;0.20;0.00;;;22.50;99.90;;;;;;21262960;28;20191;-70
2022/10/01 10:55:29;;;;;;;0.20;0.00;;;24.10;99.90;;;;;;21262470;28;20223;-68
2022/10/01 11:05:40;;;;;;;0.20;0.00;;;25.10;99.90;;;;;;21259749;28;20219;-68
2022/10/01 11:15:57;;;;;;;0.20;0.00;;;25.00;99.90;;;;;;21257732;28;20256;-68
2022/10/01 11:26:12;;;;;;;0.20;0.10;;;24.90;99.90;;;;;;21255409;28;20187;-69
2022/10/01 11:36:26;;;;;;;0.20;0.00;;;25.20;99.90;;;;;;21253466;28;20234;-69
2022/10/01 11:46:38;;;;;;;0.20;0.10;;;25.40;99.90;;;;;;21255833;28;20180;-67
2022/10/01 12:07:15;;;;;;;0.20;0.00;;;26.10;99.90;;;;;;21255402;28;20238;-68
2022/10/01 12:17:25;;;;;;;0.20;0.00;;;26.30;99.90;;;;;;21254938;28;20218;-68
2022/10/01 12:27:43;;;;;;;0.20;0.00;;;26.40;99.90;;;;;;21253503;28;20191;-69
2022/10/01 12:38:03;;;;;;;0.20;0.00;;;25.70;99.90;;;;;;21250248;28;20238;-69
2022/10/01 12:48:15;;;;;;;0.20;0.10;;;25.60;99.90;;;;;;21232401;28;20194;-67
2022/10/01 12:58:37;;;;;;;0.20;0.00;;;26.10;99.90;;;;;;21249557;28;20229;-69
2022/10/01 13:08:51;;;;;;;0.20;0.00;;;26.60;99.90;;;;;;21250724;28;20211;-67
2022/10/01 13:19:04;;;;;;;0.20;0.00;;;27.50;99.90;;;;;;21250951;28;20242;-69
2022/10/01 13:29:18;;;;;;;0.20;0.00;;;27.50;99.90;;;;;;21228486;28;20195;-67
2022/10/01 13:39:24;;;;;;;0.20;0.00;;;27.60;99.90;;;;;;21244014;28;20257;-68
2022/10/01 13:49:33;;;;;;;0.20;0.10;;;27.50;99.90;;;;;;21243613;28;20195;-67
2022/10/01 13:59:38;;;;;;;0.20;0.00;;;29.60;99.90;;;;;;21243824;28;20246;-68
2022/10/01 14:09:45;;;;;;;0.20;0.00;;;30.10;99.90;;;;;;21225951;28;20231;-69
2022/10/01 14:19:52;;;;;;;0.20;0.00;;;30.00;99.90;;;;;;21242907;28;20223;-69
2022/10/01 14:30:05;;;;;;;0.20;0.00;;;29.00;99.90;;;;;;21217559;28;20199;-68
2022/10/01 14:40:18;;;;;;;0.20;0.00;;;29.80;99.90;;;;;;21243755;28;20219;-69
2022/10/01 14:50:22;;;;;;;0.20;0.00;;;30.60;99.90;;;;;;21241410;28;20187;-68
2022/10/01 15:00:31;;;;;;;0.20;0.03;;;30.10;99.90;;;;;;21250835;28;20227;-69
2022/10/01 15:10:34;;;;;;;0.20;0.00;;;29.60;99.90;;;;;;21256265;28;20257;-69
2022/10/01 15:20:54;;;;;;;0.20;0.00;;;30.00;99.90;;;;;;21257387;28;20223;-69
2022/10/01 15:30:59;;;;;;;0.20;0.00;;;29.90;99.90;;;;;;21258242;28;20196;-69
2022/10/01 15:41:06;;;;;;;0.20;0.00;;;29.10;99.90;;;;;;21239247;28;20211;-69
2022/10/01 15:51:30;;;;;;;0.20;0.00;;;28.60;99.90;;;;;;21254589;28;20251;-68
2022/10/01 16:01:40;;;;;;;0.20;0.00;;;26.80;99.90;;;;;;21254050;28;20231;-68
2022/10/01 16:11:55;;;;;;;0.20;0.00;;;24.90;99.90;;;;;;21235329;28;20233;-67
2022/10/01 16:22:21;;;;;;;0.20;0.00;;;24.00;99.90;;;;;;21236025;28;20214;-69
2022/10/01 16:32:25;;;;;;;0.20;0.00;;;23.80;99.90;;;;;;21235099;28;20198;-69
2022/10/01 16:42:32;;;;;;;0.20;0.00;;;23.60;99.90;;;;;;21250594;28;20420;-68
2022/10/01 16:52:36;;;;;;;0.20;0.00;;;23.70;99.90;;;;;;21232920;28;20192;-68
2022/10/01 17:02:41;;;;;;;0.20;0.10;;;23.60;99.90;;;;;;21229215;28;20219;-67
2022/10/01 17:12:47;;;;;;;0.20;0.00;;;23.10;99.90;;;;;;21247121;28;20222;-68
2022/10/01 17:22:52;;;;;;;0.20;0.00;;;23.00;99.90;;;;;;21246956;28;20250;-68
2022/10/01 17:32:56;;;;;;;0.20;0.00;;;22.90;99.90;;;;;;21246538;28;20195;-68
2022/10/01 17:43:02;;;;;;;0.20;0.10;;;22.80;99.90;;;;;;21230078;28;20203;-69
2022/10/01 17:53:05;;;;;;;0.20;0.00;;;22.60;99.90;;;;;;21244956;28;20201;-69
2022/10/01 18:03:11;;;;;;;0.20;0.10;;;22.40;99.90;;;;;;21242580;28;20224;-69
2022/10/01 18:13:14;;;;;;;0.20;0.10;;;22.20;99.90;;;;;;21247471;28;20211;-69
2022/10/01 18:23:19;;;;;;;0.20;0.07;;;21.80;99.90;;;;;;21244243;28;20219;-69
2022/10/01 18:33:23;;;;;;;0.20;0.10;;;21.40;99.90;;;;;;21250148;28;20321;-69
2022/10/01 18:43:34;;;;;;;0.20;0.00;;;21.10;99.90;;;;;;21257686;28;20428;-70
2022/10/01 18:54:02;;;;;;;0.20;0.00;;;20.70;99.90;;;;;;21243109;28;20201;-68
2022/10/01 19:04:26;;;;;;;0.20;0.00;;;20.30;99.90;;;;;;21261117;28;20239;-68
2022/10/01 19:14:48;;;;;;;0.20;0.10;;;20.00;99.90;;;;;;21232189;28;20203;-70
2022/10/01 19:25:06;;;;;;;0.20;0.10;;;19.90;99.90;;;;;;21239268;28;20238;-69
2022/10/01 19:35:18;;;;;;;0.20;0.10;;;19.60;99.90;;;;;;21255257;28;20210;-69
2022/10/01 19:45:28;;;;;;;0.20;0.10;;;19.20;99.90;;;;;;21254231;28;20264;-69
2022/10/01 19:55:37;;;;;;;0.20;0.10;;;19.00;99.90;;;;;;21236392;28;20190;-68
2022/10/01 20:05:46;;;;;;;0.20;0.00;;;19.00;99.90;;;;;;21252191;28;20231;-69
2022/10/01 20:16:00;;;;;;;0.20;0.00;;;19.00;99.90;;;;;;21252881;28;20307;-70
2022/10/01 20:26:14;;;;;;;0.20;0.10;;;19.00;99.90;;;;;;21252367;28;20203;-68
2022/10/01 20:36:23;;;;;;;0.20;0.10;;;18.80;99.90;;;;;;21233834;28;20230;-70
2022/10/01 20:46:34;;;;;;;0.20;0.10;;;19.00;99.90;;;;;;21250370;28;20176;-69
2022/10/01 20:56:43;;;;;;;0.20;0.10;;;18.90;99.90;;;;;;21249189;28;20219;-69
2022/10/01 21:06:51;;;;;;;0.20;0.10;;;18.90;99.90;;;;;;21249265;28;20223;-69
2022/10/01 21:17:08;;;;;;;0.20;0.10;;;19.20;99.90;;;;;;21247880;28;20237;-69
2022/10/01 21:27:27;;;;;;;0.20;0.10;;;19.30;99.90;;;;;;21247881;28;20183;-68
2022/10/01 21:37:36;;;;;;;0.20;0.10;;;19.50;99.90;;;;;;21247789;28;20230;-68
2022/10/01 21:47:55;;;;;;;0.20;0.00;;;19.50;99.90;;;;;;21249158;28;20229;-68
2022/10/01 21:58:23;;;;;;;0.20;0.10;;;19.50;99.90;;;;;;21231716;28;20211;-68
2022/10/01 22:08:48;;;;;;;0.20;0.00;;;19.60;99.90;;;;;;21250171;28;20235;-68
2022/10/01 22:18:55;;;;;;;0.20;0.10;;;19.20;99.90;;;;;;21249473;28;20223;-69
2022/10/01 22:29:03;;;;;;;0.20;0.10;;;18.90;99.90;;;;;;21250015;28;20191;-69
2022/10/01 22:39:13;;;;;;;0.20;0.10;;;18.90;99.90;;;;;;21249328;28;20216;-69
2022/10/01 22:49:33;;;;;;;0.20;0.00;;;19.00;99.90;;;;;;21249534;28;20192;-69
2022/10/01 22:59:44;;;;;;;0.20;0.00;;;19.10;99.90;;;;;;21249214;28;20227;-68
2022/10/01 23:09:53;;;;;;;0.20;0.00;;;19.00;99.90;;;;;;21248800;28;20252;-68
2022/10/01 23:20:09;;;;;;;0.20;0.00;;;19.00;99.90;;;;;;21256016;28;20219;-69
2022/10/01 23:30:17;;;;;;;0.20;0.10;;;19.00;99.90;;;;;;21263161;28;20191;-69
2022/10/01 23:40:23;;;;;;;0.20;0.10;;;18.80;99.90;;;;;;21262273;28;20218;-68
2022/10/01 23:50:33;;;;;;;0.20;0.10;;;18.60;99.90;;;;;;21261760;28;20188;-68
